sensor_id;sensor_type;location;lat;lon;timestamp;temperature;humidity
3860;DHT22;1945;52.036;8.614;2022-11-15T00:01:08;9.20;99.90
3860;DHT22;1945;52.036;8.614;2022-11-15T00:03:35;9.30;99.90
3860;DHT22;1945;52.036;8.614;2022-11-15T00:06:03;8.80;1.00
3860;DHT22;1945;52.036;8.614;2022-11-15T00:08:30;8.90;1.00
3860;DHT22;1945;52.036;8.614;2022-11-15T00:10:59;8.90;1.00
3860;DHT22;1945;52.036;8.614;2022-11-15T00:13:27;8.70;1.00
3860;DHT22;1945;52.036;8.614;2022-11-15T00:15:56;8.90;1.00
3860;DHT22;1945;52.036;8.614;2022-11-15T00:18:23;9.30;1.00
3860;DHT22;1945;52.036;8.614;2022-11-15T00:20:50;9.40;1.00
3860;DHT22;1945;52.036;8.614;2022-11-15T00:23:17;9.40;1.00
3860;DHT22;1945;52.036;8.614;2022-11-15T00:25:44;9.00;1.00
3860;DHT22;1945;52.036;8.614;2022-11-15T00:28:12;9.00;1.00
3860;DHT22;1945;52.036;8.614;2022-11-15T00:30:40;9.50;1.00
3860;DHT22;1945;52.036;8.614;2022-11-15T00:33:08;9.40;1.00
3860;DHT22;1945;52.036;8.614;2022-11-15T00:35:35;9.00;1.00
3860;DHT22;1945;52.036;8.614;2022-11-15T00:38:02;9.10;1.00
3860;DHT22;1945;52.036;8.614;2022-11-15T00:40:29;9.60;1.00
3860;DHT22;1945;52.036;8.614;2022-11-15T00:42:56;9.10;1.00
3860;DHT22;1945;52.036;8.614;2022-11-15T00:45:23;9.10;1.00
3860;DHT22;1945;52.036;8.614;2022-11-15T00:47:52;9.20;1.00
3860;DHT22;1945;52.036;8.614;2022-11-15T00:50:19;9.20;1.00
3860;DHT22;1945;52.036;8.614;2022-11-15T00:52:45;9.20;1.00
3860;DHT22;1945;52.036;8.614;2022-11-15T00:55:13;9.20;1.00
3860;DHT22;1945;52.036;8.614;2022-11-15T00:57:41;9.30;1.00
3860;DHT22;1945;52.036;8.614;2022-11-15T01:00:09;9.40;1.00
3860;DHT22;1945;52.036;8.614;2022-11-15T01:02:36;9.40;1.00
3860;DHT22;1945;52.036;8.614;2022-11-15T01:05:05;10.00;1.00
3860;DHT22;1945;52.036;8.614;2022-11-15T01:07:32;9.50;1.00
3860;DHT22;1945;52.036;8.614;2022-11-15T01:09:59;9.60;1.00
3860;DHT22;1945;52.036;8.614;2022-11-15T01:12:25;9.50;1.00
3860;DHT22;1945;52.036;8.614;2022-11-15T01:14:52;10.10;1.00
3860;DHT22;1945;52.036;8.614;2022-11-15T01:17:19;9.70;1.00
3860;DHT22;1945;52.036;8.614;2022-11-15T01:19:46;10.00;1.00
3860;DHT22;1945;52.036;8.614;2022-11-15T01:22:14;9.70;1.00
3860;DHT22;1945;52.036;8.614;2022-11-15T01:24:41;9.70;1.00
3860;DHT22;1945;52.036;8.614;2022-11-15T01:27:08;9.70;1.00
3860;DHT22;1945;52.036;8.614;2022-11-15T01:29:34;9.80;1.00
3860;DHT22;1945;52.036;8.614;2022-11-15T01:32:01;9.80;1.00
3860;DHT22;1945;52.036;8.614;2022-11-15T01:34:28;9.80;1.00
3860;DHT22;1945;52.036;8.614;2022-11-15T01:36:55;10.40;1.00
3860;DHT22;1945;52.036;8.614;2022-11-15T01:39:23;9.90;1.00
3860;DHT22;1945;52.036;8.614;2022-11-15T01:41:51;10.20;1.00
3860;DHT22;1945;52.036;8.614;2022-11-15T01:44:41;10.30;1.00
3860;DHT22;1945;52.036;8.614;2022-11-15T01:47:11;10.00;1.00
3860;DHT22;1945;52.036;8.614;2022-11-15T01:49:41;9.90;1.00
3860;DHT22;1945;52.036;8.614;2022-11-15T01:52:13;10.00;1.00
3860;DHT22;1945;52.036;8.614;2022-11-15T01:54:43;10.20;1.00
3860;DHT22;1945;52.036;8.614;2022-11-15T01:57:12;9.90;1.00
3860;DHT22;1945;52.036;8.614;2022-11-15T01:59:42;10.00;9.40
3860;DHT22;1945;52.036;8.614;2022-11-15T02:02:10;10.00;1.00
3860;DHT22;1945;52.036;8.614;2022-11-15T02:04:39;10.50;1.00
3860;DHT22;1945;52.036;8.614;2022-11-15T02:07:09;10.50;1.00
3860;DHT22;1945;52.036;8.614;2022-11-15T02:09:36;10.40;10.10
3860;DHT22;1945;52.036;8.614;2022-11-15T02:12:06;10.40;36.40
3860;DHT22;1945;52.036;8.614;2022-11-15T02:14:34;10.00;4.50
3860;DHT22;1945;52.036;8.614;2022-11-15T02:17:09;10.60;76.50
3860;DHT22;1945;52.036;8.614;2022-11-15T02:20:08;10.40;30.70
3860;DHT22;1945;52.036;8.614;2022-11-15T02:22:51;10.10;93.30
3860;DHT22;1945;52.036;8.614;2022-11-15T02:25:39;10.20;93.00
3860;DHT22;1945;52.036;8.614;2022-11-15T02:28:21;10.20;59.20
3860;DHT22;1945;52.036;8.614;2022-11-15T02:30:59;10.50;99.90
3860;DHT22;1945;52.036;8.614;2022-11-15T02:33:35;10.60;55.00
3860;DHT22;1945;52.036;8.614;2022-11-15T02:36:10;10.20;94.80
3860;DHT22;1945;52.036;8.614;2022-11-15T02:38:41;10.60;98.50
3860;DHT22;1945;52.036;8.614;2022-11-15T02:41:11;10.30;99.90
3860;DHT22;1945;52.036;8.614;2022-11-15T02:43:43;10.30;84.60
3860;DHT22;1945;52.036;8.614;2022-11-15T02:46:28;10.30;99.90
3860;DHT22;1945;52.036;8.614;2022-11-15T02:49:12;10.80;99.90
3860;DHT22;1945;52.036;8.614;2022-11-15T02:51:40;10.80;99.90
3860;DHT22;1945;52.036;8.614;2022-11-15T02:54:11;10.80;99.90
3860;DHT22;1945;52.036;8.614;2022-11-15T02:56:38;10.40;99.90
3860;DHT22;1945;52.036;8.614;2022-11-15T02:59:20;10.70;99.90
3860;DHT22;1945;52.036;8.614;2022-11-15T03:02:02;10.90;99.90
3860;DHT22;1945;52.036;8.614;2022-11-15T03:04:38;10.80;99.90
3860;DHT22;1945;52.036;8.614;2022-11-15T03:07:12;10.90;99.90
3860;DHT22;1945;52.036;8.614;2022-11-15T03:09:47;11.00;99.90
3860;DHT22;1945;52.036;8.614;2022-11-15T03:12:23;10.50;99.90
3860;DHT22;1945;52.036;8.614;2022-11-15T03:14:54;10.60;99.90
3860;DHT22;1945;52.036;8.614;2022-11-15T03:17:27;10.70;99.90
3860;DHT22;1945;52.036;8.614;2022-11-15T03:19:57;10.80;99.90
3860;DHT22;1945;52.036;8.614;2022-11-15T03:22:28;11.30;99.90
3860;DHT22;1945;52.036;8.614;2022-11-15T03:24:57;11.20;99.90
3860;DHT22;1945;52.036;8.614;2022-11-15T03:27:29;11.30;99.90
3860;DHT22;1945;52.036;8.614;2022-11-15T03:30:00;10.80;99.90
3860;DHT22;1945;52.036;8.614;2022-11-15T03:32:31;10.80;99.90
3860;DHT22;1945;52.036;8.614;2022-11-15T03:35:05;10.80;99.90
3860;DHT22;1945;52.036;8.614;2022-11-15T03:37:36;10.80;99.90
3860;DHT22;1945;52.036;8.614;2022-11-15T03:40:05;10.70;99.90
3860;DHT22;1945;52.036;8.614;2022-11-15T03:42:38;10.70;99.90
3860;DHT22;1945;52.036;8.614;2022-11-15T03:45:13;11.20;99.90
3860;DHT22;1945;52.036;8.614;2022-11-15T03:47:43;10.80;99.90
3860;DHT22;1945;52.036;8.614;2022-11-15T03:50:14;10.90;99.90
3860;DHT22;1945;52.036;8.614;2022-11-15T03:52:45;10.80;99.90
3860;DHT22;1945;52.036;8.614;2022-11-15T03:55:17;10.70;99.90
3860;DHT22;1945;52.036;8.614;2022-11-15T03:57:45;11.00;99.90
3860;DHT22;1945;52.036;8.614;2022-11-15T04:00:12;11.10;99.90
3860;DHT22;1945;52.036;8.614;2022-11-15T04:02:39;10.80;99.90
3860;DHT22;1945;52.036;8.614;2022-11-15T04:05:08;10.80;99.90
3860;DHT22;1945;52.036;8.614;2022-11-15T04:07:35;10.80;99.90
3860;DHT22;1945;52.036;8.614;2022-11-15T04:10:02;11.20;99.90
3860;DHT22;1945;52.036;8.614;2022-11-15T04:12:29;10.80;99.90
3860;DHT22;1945;52.036;8.614;2022-11-15T04:15:00;11.10;99.90
3860;DHT22;1945;52.036;8.614;2022-11-15T04:17:38;11.30;99.90
3860;DHT22;1945;52.036;8.614;2022-11-15T04:20:09;11.00;99.90
3860;DHT22;1945;52.036;8.614;2022-11-15T04:22:54;10.80;99.90
3860;DHT22;1945;52.036;8.614;2022-11-15T04:25:38;10.90;99.90
3860;DHT22;1945;52.036;8.614;2022-11-15T04:28:05;10.50;99.90
3860;DHT22;1945;52.036;8.614;2022-11-15T04:30:32;10.80;99.90
3860;DHT22;1945;52.036;8.614;2022-11-15T04:32:59;10.80;99.90
3860;DHT22;1945;52.036;8.614;2022-11-15T04:35:27;11.20;99.90
3860;DHT22;1945;52.036;8.614;2022-11-15T04:37:56;10.80;99.90
3860;DHT22;1945;52.036;8.614;2022-11-15T04:40:22;10.80;99.90
3860;DHT22;1945;52.036;8.614;2022-11-15T04:42:49;10.80;99.90
3860;DHT22;1945;52.036;8.614;2022-11-15T04:45:16;10.70;99.90
3860;DHT22;1945;52.036;8.614;2022-11-15T04:47:43;11.30;99.90
3860;DHT22;1945;52.036;8.614;2022-11-15T04:50:10;10.80;99.90
3860;DHT22;1945;52.036;8.614;2022-11-15T04:52:40;10.80;99.90
3860;DHT22;1945;52.036;8.614;2022-11-15T04:55:08;11.30;99.90
3860;DHT22;1945;52.036;8.614;2022-11-15T04:57:35;10.80;99.90
3860;DHT22;1945;52.036;8.614;2022-11-15T05:00:03;10.80;99.90
3860;DHT22;1945;52.036;8.614;2022-11-15T05:02:30;10.80;99.90
3860;DHT22;1945;52.036;8.614;2022-11-15T05:05:11;10.80;99.90
3860;DHT22;1945;52.036;8.614;2022-11-15T05:07:39;11.00;99.90
3860;DHT22;1945;52.036;8.614;2022-11-15T05:10:06;10.90;99.90
3860;DHT22;1945;52.036;8.614;2022-11-15T05:12:33;10.90;99.90
3860;DHT22;1945;52.036;8.614;2022-11-15T05:15:00;11.20;99.90
3860;DHT22;1945;52.036;8.614;2022-11-15T05:17:27;10.90;99.90
3860;DHT22;1945;52.036;8.614;2022-11-15T05:19:53;10.90;99.90
3860;DHT22;1945;52.036;8.614;2022-11-15T05:22:21;11.20;99.90
3860;DHT22;1945;52.036;8.614;2022-11-15T05:24:49;11.30;99.90
3860;DHT22;1945;52.036;8.614;2022-11-15T05:27:16;11.30;99.90
3860;DHT22;1945;52.036;8.614;2022-11-15T05:29:43;10.90;99.90
3860;DHT22;1945;52.036;8.614;2022-11-15T05:32:11;10.90;99.90
3860;DHT22;1945;52.036;8.614;2022-11-15T05:34:38;10.90;99.90
3860;DHT22;1945;52.036;8.614;2022-11-15T05:37:05;11.40;99.90
3860;DHT22;1945;52.036;8.614;2022-11-15T05:39:32;11.50;99.90
3860;DHT22;1945;52.036;8.614;2022-11-15T05:42:04;11.10;97.80
3860;DHT22;1945;52.036;8.614;2022-11-15T05:44:34;11.10;98.50
3860;DHT22;1945;52.036;8.614;2022-11-15T05:47:03;11.10;95.40
3860;DHT22;1945;52.036;8.614;2022-11-15T05:49:32;11.10;69.50
3860;DHT22;1945;52.036;8.614;2022-11-15T05:52:02;11.40;57.80
3860;DHT22;1945;52.036;8.614;2022-11-15T05:54:31;11.10;50.30
3860;DHT22;1945;52.036;8.614;2022-11-15T05:56:58;11.70;73.80
3860;DHT22;1945;52.036;8.614;2022-11-15T05:59:28;11.20;76.30
3860;DHT22;1945;52.036;8.614;2022-11-15T06:01:56;11.20;32.80
3860;DHT22;1945;52.036;8.614;2022-11-15T06:04:23;11.40;35.30
3860;DHT22;1945;52.036;8.614;2022-11-15T06:06:49;11.20;36.40
3860;DHT22;1945;52.036;8.614;2022-11-15T06:09:16;11.70;79.10
3860;DHT22;1945;52.036;8.614;2022-11-15T06:11:43;11.40;28.70
3860;DHT22;1945;52.036;8.614;2022-11-15T06:14:10;11.30;24.60
3860;DHT22;1945;52.036;8.614;2022-11-15T06:16:38;11.60;29.80
3860;DHT22;1945;52.036;8.614;2022-11-15T06:19:06;11.30;18.50
3860;DHT22;1945;52.036;8.614;2022-11-15T06:21:33;11.40;25.90
3860;DHT22;1945;52.036;8.614;2022-11-15T06:23:59;11.50;1.00
3860;DHT22;1945;52.036;8.614;2022-11-15T06:26:26;11.40;1.00
3860;DHT22;1945;52.036;8.614;2022-11-15T06:28:53;11.40;1.00
3860;DHT22;1945;52.036;8.614;2022-11-15T06:31:20;11.40;1.00
3860;DHT22;1945;52.036;8.614;2022-11-15T06:33:48;11.40;1.00
3860;DHT22;1945;52.036;8.614;2022-11-15T06:36:16;11.50;1.00
3860;DHT22;1945;52.036;8.614;2022-11-15T06:38:43;11.50;1.00
3860;DHT22;1945;52.036;8.614;2022-11-15T06:41:11;12.00;1.00
3860;DHT22;1945;52.036;8.614;2022-11-15T06:43:38;11.50;1.00
3860;DHT22;1945;52.036;8.614;2022-11-15T06:46:06;11.50;1.00
3860;DHT22;1945;52.036;8.614;2022-11-15T06:48:34;11.60;1.00
3860;DHT22;1945;52.036;8.614;2022-11-15T06:51:04;11.40;1.00
3860;DHT22;1945;52.036;8.614;2022-11-15T06:53:31;11.50;1.00
3860;DHT22;1945;52.036;8.614;2022-11-15T06:55:59;11.60;1.00
3860;DHT22;1945;52.036;8.614;2022-11-15T06:58:26;11.40;1.00
3860;DHT22;1945;52.036;8.614;2022-11-15T07:00:57;11.50;1.00
3860;DHT22;1945;52.036;8.614;2022-11-15T07:03:24;11.50;1.00
3860;DHT22;1945;52.036;8.614;2022-11-15T07:05:52;11.50;1.00
3860;DHT22;1945;52.036;8.614;2022-11-15T07:08:21;11.50;1.00
3860;DHT22;1945;52.036;8.614;2022-11-15T07:10:48;11.70;1.00
3860;DHT22;1945;52.036;8.614;2022-11-15T07:13:15;11.70;1.00
3860;DHT22;1945;52.036;8.614;2022-11-15T07:15:42;11.70;1.00
3860;DHT22;1945;52.036;8.614;2022-11-15T07:18:09;11.70;1.00
3860;DHT22;1945;52.036;8.614;2022-11-15T07:20:36;12.20;1.00
3860;DHT22;1945;52.036;8.614;2022-11-15T07:23:03;12.10;1.00
3860;DHT22;1945;52.036;8.614;2022-11-15T07:25:32;11.80;1.00
3860;DHT22;1945;52.036;8.614;2022-11-15T07:27:59;12.00;1.00
3860;DHT22;1945;52.036;8.614;2022-11-15T07:30:27;12.40;1.00
3860;DHT22;1945;52.036;8.614;2022-11-15T07:32:54;12.20;1.00
3860;DHT22;1945;52.036;8.614;2022-11-15T07:35:21;12.30;1.00
3860;DHT22;1945;52.036;8.614;2022-11-15T07:37:54;12.30;1.00
3860;DHT22;1945;52.036;8.614;2022-11-15T07:40:21;12.40;1.00
3860;DHT22;1945;52.036;8.614;2022-11-15T07:42:50;12.30;1.00
3860;DHT22;1945;52.036;8.614;2022-11-15T07:45:19;12.60;1.00
3860;DHT22;1945;52.036;8.614;2022-11-15T07:47:46;12.30;1.00
3860;DHT22;1945;52.036;8.614;2022-11-15T07:50:13;12.70;1.00
3860;DHT22;1945;52.036;8.614;2022-11-15T07:52:40;13.00;1.00
3860;DHT22;1945;52.036;8.614;2022-11-15T07:55:08;12.30;1.00
3860;DHT22;1945;52.036;8.614;2022-11-15T07:57:35;12.30;1.00
3860;DHT22;1945;52.036;8.614;2022-11-15T08:00:04;12.90;1.00
3860;DHT22;1945;52.036;8.614;2022-11-15T08:02:31;12.40;1.00
3860;DHT22;1945;52.036;8.614;2022-11-15T08:04:58;12.80;1.00
3860;DHT22;1945;52.036;8.614;2022-11-15T08:07:28;12.40;1.00
3860;DHT22;1945;52.036;8.614;2022-11-15T08:09:55;12.80;1.00
3860;DHT22;1945;52.036;8.614;2022-11-15T08:12:22;12.80;1.00
3860;DHT22;1945;52.036;8.614;2022-11-15T08:14:49;12.60;1.00
3860;DHT22;1945;52.036;8.614;2022-11-15T08:17:17;12.70;1.00
3860;DHT22;1945;52.036;8.614;2022-11-15T08:19:44;12.70;1.00
3860;DHT22;1945;52.036;8.614;2022-11-15T08:22:11;12.70;99.90
3860;DHT22;1945;52.036;8.614;2022-11-15T08:24:37;12.70;99.90
3860;DHT22;1945;52.036;8.614;2022-11-15T08:27:04;12.70;99.90
3860;DHT22;1945;52.036;8.614;2022-11-15T08:29:40;13.10;1.00
3860;DHT22;1945;52.036;8.614;2022-11-15T08:32:08;13.20;99.90
3860;DHT22;1945;52.036;8.614;2022-11-15T08:34:36;12.90;99.90
3860;DHT22;1945;52.036;8.614;2022-11-15T08:37:03;12.90;99.90
3860;DHT22;1945;52.036;8.614;2022-11-15T08:39:30;13.30;99.90
3860;DHT22;1945;52.036;8.614;2022-11-15T08:41:57;13.10;99.90
3860;DHT22;1945;52.036;8.614;2022-11-15T08:44:24;13.10;99.90
3860;DHT22;1945;52.036;8.614;2022-11-15T08:46:51;13.20;99.90
3860;DHT22;1945;52.036;8.614;2022-11-15T08:49:18;13.60;99.90
3860;DHT22;1945;52.036;8.614;2022-11-15T08:51:46;13.30;99.90
3860;DHT22;1945;52.036;8.614;2022-11-15T08:54:13;13.30;99.90
3860;DHT22;1945;52.036;8.614;2022-11-15T08:56:40;13.60;99.90
3860;DHT22;1945;52.036;8.614;2022-11-15T08:59:07;13.50;99.90
3860;DHT22;1945;52.036;8.614;2022-11-15T09:01:33;13.30;99.90
3860;DHT22;1945;52.036;8.614;2022-11-15T09:04:00;13.40;99.90
3860;DHT22;1945;52.036;8.614;2022-11-15T09:06:27;13.50;55.90
3860;DHT22;1945;52.036;8.614;2022-11-15T09:08:56;13.50;47.50
3860;DHT22;1945;52.036;8.614;2022-11-15T09:11:23;13.40;94.10
3860;DHT22;1945;52.036;8.614;2022-11-15T09:13:49;13.80;28.10
3860;DHT22;1945;52.036;8.614;2022-11-15T09:16:17;13.50;1.00
3860;DHT22;1945;52.036;8.614;2022-11-15T09:18:44;13.60;1.00
3860;DHT22;1945;52.036;8.614;2022-11-15T09:21:11;13.60;4.20
3860;DHT22;1945;52.036;8.614;2022-11-15T09:23:38;13.60;1.00
3860;DHT22;1945;52.036;8.614;2022-11-15T09:26:06;13.60;1.00
3860;DHT22;1945;52.036;8.614;2022-11-15T09:28:34;13.70;1.00
3860;DHT22;1945;52.036;8.614;2022-11-15T09:31:02;14.00;1.00
3860;DHT22;1945;52.036;8.614;2022-11-15T09:33:30;13.70;1.00
3860;DHT22;1945;52.036;8.614;2022-11-15T09:36:00;14.20;1.00
3860;DHT22;1945;52.036;8.614;2022-11-15T09:38:27;13.70;1.00
3860;DHT22;1945;52.036;8.614;2022-11-15T09:41:24;13.70;1.00
3860;DHT22;1945;52.036;8.614;2022-11-15T09:43:59;13.70;1.00
3860;DHT22;1945;52.036;8.614;2022-11-15T09:46:35;13.70;1.00
3860;DHT22;1945;52.036;8.614;2022-11-15T09:49:04;13.70;1.00
3860;DHT22;1945;52.036;8.614;2022-11-15T09:51:34;13.70;1.00
3860;DHT22;1945;52.036;8.614;2022-11-15T09:54:05;13.70;1.00
3860;DHT22;1945;52.036;8.614;2022-11-15T09:56:38;13.70;1.00
3860;DHT22;1945;52.036;8.614;2022-11-15T09:59:25;13.70;1.00
3860;DHT22;1945;52.036;8.614;2022-11-15T10:01:58;13.80;1.00
3860;DHT22;1945;52.036;8.614;2022-11-15T10:04:28;14.00;1.00
3860;DHT22;1945;52.036;8.614;2022-11-15T10:07:13;13.80;1.00
3860;DHT22;1945;52.036;8.614;2022-11-15T10:09:46;13.80;99.90
3860;DHT22;1945;52.036;8.614;2022-11-15T10:12:15;14.20;1.00
3860;DHT22;1945;52.036;8.614;2022-11-15T10:14:43;14.30;99.90
3860;DHT22;1945;52.036;8.614;2022-11-15T10:17:43;14.10;99.90
3860;DHT22;1945;52.036;8.614;2022-11-15T10:20:19;14.00;99.90
3860;DHT22;1945;52.036;8.614;2022-11-15T10:22:50;14.00;98.80
3860;DHT22;1945;52.036;8.614;2022-11-15T10:25:20;14.00;99.90
3860;DHT22;1945;52.036;8.614;2022-11-15T10:27:55;14.00;39.70
3860;DHT22;1945;52.036;8.614;2022-11-15T10:30:28;14.00;99.90
3860;DHT22;1945;52.036;8.614;2022-11-15T10:32:56;14.00;21.30
3860;DHT22;1945;52.036;8.614;2022-11-15T10:35:25;14.00;11.70
3860;DHT22;1945;52.036;8.614;2022-11-15T10:38:04;14.00;1.00
3860;DHT22;1945;52.036;8.614;2022-11-15T10:40:31;14.10;1.00
3860;DHT22;1945;52.036;8.614;2022-11-15T10:43:12;14.10;1.00
3860;DHT22;1945;52.036;8.614;2022-11-15T10:45:41;14.10;1.00
3860;DHT22;1945;52.036;8.614;2022-11-15T10:48:22;14.50;1.00
3860;DHT22;1945;52.036;8.614;2022-11-15T10:50:50;14.20;1.00
3860;DHT22;1945;52.036;8.614;2022-11-15T10:53:22;14.50;99.90
3860;DHT22;1945;52.036;8.614;2022-11-15T10:55:53;14.20;1.00
3860;DHT22;1945;52.036;8.614;2022-11-15T10:58:32;14.20;1.00
3860;DHT22;1945;52.036;8.614;2022-11-15T11:01:12;14.20;1.00
3860;DHT22;1945;52.036;8.614;2022-11-15T11:03:41;14.20;1.00
3860;DHT22;1945;52.036;8.614;2022-11-15T11:06:11;14.20;1.00
3860;DHT22;1945;52.036;8.614;2022-11-15T11:08:39;14.20;1.00
3860;DHT22;1945;52.036;8.614;2022-11-15T11:11:06;14.30;1.00
3860;DHT22;1945;52.036;8.614;2022-11-15T11:13:37;14.30;1.00
3860;DHT22;1945;52.036;8.614;2022-11-15T11:16:20;14.30;1.00
3860;DHT22;1945;52.036;8.614;2022-11-15T11:18:56;14.70;1.00
3860;DHT22;1945;52.036;8.614;2022-11-15T11:21:35;14.30;1.00
3860;DHT22;1945;52.036;8.614;2022-11-15T11:24:10;14.30;1.00
3860;DHT22;1945;52.036;8.614;2022-11-15T11:26:42;14.30;1.00
3860;DHT22;1945;52.036;8.614;2022-11-15T11:29:24;14.60;1.00
3860;DHT22;1945;52.036;8.614;2022-11-15T11:31:57;14.30;1.00
3860;DHT22;1945;52.036;8.614;2022-11-15T11:34:37;14.70;1.00
3860;DHT22;1945;52.036;8.614;2022-11-15T11:37:12;14.40;1.00
3860;DHT22;1945;52.036;8.614;2022-11-15T11:39:49;14.40;1.00
3860;DHT22;1945;52.036;8.614;2022-11-15T11:42:26;14.40;1.00
3860;DHT22;1945;52.036;8.614;2022-11-15T11:45:05;15.00;1.00
3860;DHT22;1945;52.036;8.614;2022-11-15T11:47:39;14.50;1.00
3860;DHT22;1945;52.036;8.614;2022-11-15T11:50:13;14.50;1.00
3860;DHT22;1945;52.036;8.614;2022-11-15T11:52:54;14.50;1.00
3860;DHT22;1945;52.036;8.614;2022-11-15T11:55:26;14.50;1.00
3860;DHT22;1945;52.036;8.614;2022-11-15T11:58:06;14.50;1.00
3860;DHT22;1945;52.036;8.614;2022-11-15T12:00:41;14.50;1.00
3860;DHT22;1945;52.036;8.614;2022-11-15T12:03:14;14.50;1.00
3860;DHT22;1945;52.036;8.614;2022-11-15T12:05:50;14.40;1.00
3860;DHT22;1945;52.036;8.614;2022-11-15T12:08:30;14.40;1.00
3860;DHT22;1945;52.036;8.614;2022-11-15T12:11:03;14.80;1.00
3860;DHT22;1945;52.036;8.614;2022-11-15T12:13:33;14.40;1.00
3860;DHT22;1945;52.036;8.614;2022-11-15T12:16:08;14.50;1.00
3860;DHT22;1945;52.036;8.614;2022-11-15T12:18:37;14.40;1.00
3860;DHT22;1945;52.036;8.614;2022-11-15T12:21:07;14.40;1.00
3860;DHT22;1945;52.036;8.614;2022-11-15T12:23:43;14.40;1.00
3860;DHT22;1945;52.036;8.614;2022-11-15T12:26:16;14.90;1.00
3860;DHT22;1945;52.036;8.614;2022-11-15T12:28:47;14.50;1.00
3860;DHT22;1945;52.036;8.614;2022-11-15T12:31:20;14.50;1.00
3860;DHT22;1945;52.036;8.614;2022-11-15T12:33:49;14.50;1.00
3860;DHT22;1945;52.036;8.614;2022-11-15T12:36:35;14.50;1.00
3860;DHT22;1945;52.036;8.614;2022-11-15T12:39:04;14.60;1.00
3860;DHT22;1945;52.036;8.614;2022-11-15T12:41:32;14.60;1.00
3860;DHT22;1945;52.036;8.614;2022-11-15T12:44:00;14.70;99.90
3860;DHT22;1945;52.036;8.614;2022-11-15T12:47:00;14.60;1.00
3860;DHT22;1945;52.036;8.614;2022-11-15T12:49:45;14.70;1.00
3860;DHT22;1945;52.036;8.614;2022-11-15T12:52:12;14.70;1.00
3860;DHT22;1945;52.036;8.614;2022-11-15T12:54:59;14.70;1.00
3860;DHT22;1945;52.036;8.614;2022-11-15T12:57:36;14.70;1.00
3860;DHT22;1945;52.036;8.614;2022-11-15T13:03:26;14.60;1.00
3860;DHT22;1945;52.036;8.614;2022-11-15T13:06:02;14.60;1.00
3860;DHT22;1945;52.036;8.614;2022-11-15T13:08:54;14.60;1.00
3860;DHT22;1945;52.036;8.614;2022-11-15T13:11:43;14.90;1.00
3860;DHT22;1945;52.036;8.614;2022-11-15T13:14:46;14.60;1.00
3860;DHT22;1945;52.036;8.614;2022-11-15T13:17:38;14.60;99.90
3860;DHT22;1945;52.036;8.614;2022-11-15T13:20:21;14.60;1.00
3860;DHT22;1945;52.036;8.614;2022-11-15T13:22:59;14.60;1.00
3860;DHT22;1945;52.036;8.614;2022-11-15T13:25:54;14.50;1.00
3860;DHT22;1945;52.036;8.614;2022-11-15T13:28:29;14.50;1.00
3860;DHT22;1945;52.036;8.614;2022-11-15T13:30:59;14.80;1.00
3860;DHT22;1945;52.036;8.614;2022-11-15T13:33:31;14.40;1.00
3860;DHT22;1945;52.036;8.614;2022-11-15T13:36:03;14.40;99.90
3860;DHT22;1945;52.036;8.614;2022-11-15T13:38:32;14.80;99.90
3860;DHT22;1945;52.036;8.614;2022-11-15T13:41:00;14.50;1.00
3860;DHT22;1945;52.036;8.614;2022-11-15T13:43:39;14.60;1.00
3860;DHT22;1945;52.036;8.614;2022-11-15T13:46:10;14.50;1.00
3860;DHT22;1945;52.036;8.614;2022-11-15T13:48:37;14.50;1.00
3860;DHT22;1945;52.036;8.614;2022-11-15T13:51:10;14.40;99.90
3860;DHT22;1945;52.036;8.614;2022-11-15T13:53:42;14.30;99.90
3860;DHT22;1945;52.036;8.614;2022-11-15T13:56:12;14.40;99.90
3860;DHT22;1945;52.036;8.614;2022-11-15T13:58:39;14.40;99.90
3860;DHT22;1945;52.036;8.614;2022-11-15T14:01:06;14.30;99.90
3860;DHT22;1945;52.036;8.614;2022-11-15T14:03:48;14.20;99.90
3860;DHT22;1945;52.036;8.614;2022-11-15T14:06:20;14.20;99.90
3860;DHT22;1945;52.036;8.614;2022-11-15T14:09:15;14.20;99.90
3860;DHT22;1945;52.036;8.614;2022-11-15T14:11:51;14.20;99.90
3860;DHT22;1945;52.036;8.614;2022-11-15T14:14:20;14.50;99.90
3860;DHT22;1945;52.036;8.614;2022-11-15T14:16:50;14.00;99.90
3860;DHT22;1945;52.036;8.614;2022-11-15T14:19:38;14.00;99.90
3860;DHT22;1945;52.036;8.614;2022-11-15T14:22:13;14.00;35.20
3860;DHT22;1945;52.036;8.614;2022-11-15T14:24:41;13.90;42.30
3860;DHT22;1945;52.036;8.614;2022-11-15T14:27:23;14.20;50.00
3860;DHT22;1945;52.036;8.614;2022-11-15T14:29:50;13.90;1.00
3860;DHT22;1945;52.036;8.614;2022-11-15T14:32:19;13.80;5.60
3860;DHT22;1945;52.036;8.614;2022-11-15T14:34:47;13.80;26.80
3860;DHT22;1945;52.036;8.614;2022-11-15T14:37:22;13.70;73.40
3860;DHT22;1945;52.036;8.614;2022-11-15T14:39:50;14.10;23.00
3860;DHT22;1945;52.036;8.614;2022-11-15T14:42:18;13.70;1.00
3860;DHT22;1945;52.036;8.614;2022-11-15T14:44:45;13.70;2.60
3860;DHT22;1945;52.036;8.614;2022-11-15T14:47:12;13.60;24.40
3860;DHT22;1945;52.036;8.614;2022-11-15T14:49:39;13.50;62.60
3860;DHT22;1945;52.036;8.614;2022-11-15T14:52:27;13.40;67.20
3860;DHT22;1945;52.036;8.614;2022-11-15T14:54:54;13.40;77.40
3860;DHT22;1945;52.036;8.614;2022-11-15T14:57:21;13.40;81.40
3860;DHT22;1945;52.036;8.614;2022-11-15T14:59:48;13.70;99.90
3860;DHT22;1945;52.036;8.614;2022-11-15T15:02:17;13.40;99.90
3860;DHT22;1945;52.036;8.614;2022-11-15T15:04:45;13.20;99.90
3860;DHT22;1945;52.036;8.614;2022-11-15T15:07:12;13.10;99.90
3860;DHT22;1945;52.036;8.614;2022-11-15T15:09:40;13.10;99.90
3860;DHT22;1945;52.036;8.614;2022-11-15T15:12:14;13.00;99.90
3860;DHT22;1945;52.036;8.614;2022-11-15T15:14:42;13.00;99.90
3860;DHT22;1945;52.036;8.614;2022-11-15T15:17:09;12.90;99.90
3860;DHT22;1945;52.036;8.614;2022-11-15T15:19:36;12.90;99.90
3860;DHT22;1945;52.036;8.614;2022-11-15T15:22:03;13.20;1.00
3860;DHT22;1945;52.036;8.614;2022-11-15T15:24:29;12.80;1.00
3860;DHT22;1945;52.036;8.614;2022-11-15T15:26:58;12.80;1.00
3860;DHT22;1945;52.036;8.614;2022-11-15T15:29:24;12.70;1.00
3860;DHT22;1945;52.036;8.614;2022-11-15T15:31:51;12.70;1.00
3860;DHT22;1945;52.036;8.614;2022-11-15T15:34:18;12.70;1.00
3860;DHT22;1945;52.036;8.614;2022-11-15T15:36:45;12.70;1.00
3860;DHT22;1945;52.036;8.614;2022-11-15T15:39:12;12.70;1.00
3860;DHT22;1945;52.036;8.614;2022-11-15T15:41:39;13.20;1.00
3860;DHT22;1945;52.036;8.614;2022-11-15T15:44:07;12.70;1.00
3860;DHT22;1945;52.036;8.614;2022-11-15T15:46:34;13.10;1.00
3860;DHT22;1945;52.036;8.614;2022-11-15T15:49:01;13.00;1.00
3860;DHT22;1945;52.036;8.614;2022-11-15T15:51:28;12.70;1.00
3860;DHT22;1945;52.036;8.614;2022-11-15T15:53:55;12.70;1.00
3860;DHT22;1945;52.036;8.614;2022-11-15T15:56:23;12.70;1.00
3860;DHT22;1945;52.036;8.614;2022-11-15T15:58:50;12.70;1.00
3860;DHT22;1945;52.036;8.614;2022-11-15T16:01:19;12.70;99.90
3860;DHT22;1945;52.036;8.614;2022-11-15T16:03:46;13.30;99.90
3860;DHT22;1945;52.036;8.614;2022-11-15T16:06:40;13.20;99.90
3860;DHT22;1945;52.036;8.614;2022-11-15T16:09:12;12.80;99.90
3860;DHT22;1945;52.036;8.614;2022-11-15T16:11:40;13.00;99.90
3860;DHT22;1945;52.036;8.614;2022-11-15T16:14:07;12.80;99.90
3860;DHT22;1945;52.036;8.614;2022-11-15T16:16:36;13.30;99.90
3860;DHT22;1945;52.036;8.614;2022-11-15T16:19:03;12.80;99.90
3860;DHT22;1945;52.036;8.614;2022-11-15T16:21:30;12.90;99.90
3860;DHT22;1945;52.036;8.614;2022-11-15T16:23:57;12.90;99.90
3860;DHT22;1945;52.036;8.614;2022-11-15T16:26:27;12.80;99.90
3860;DHT22;1945;52.036;8.614;2022-11-15T16:28:55;12.90;99.90
3860;DHT22;1945;52.036;8.614;2022-11-15T16:31:21;13.20;99.90
3860;DHT22;1945;52.036;8.614;2022-11-15T16:33:49;13.10;99.90
3860;DHT22;1945;52.036;8.614;2022-11-15T16:36:20;12.80;99.90
3860;DHT22;1945;52.036;8.614;2022-11-15T16:38:47;12.80;99.90